createdAt,value
2022-12-11T00:00:25.627Z,22.73
2022-12-11T00:03:16.102Z,22.98
2022-12-11T00:05:44.508Z,22.33
2022-12-11T00:08:12.652Z,21.88
2022-12-11T00:10:40.060Z,22.95
2022-12-11T00:13:07.838Z,21.75
2022-12-11T00:15:35.153Z,22.88
2022-12-11T00:18:02.793Z,24.55
2022-12-11T00:20:30.128Z,24.00
2022-12-11T00:22:57.756Z,22.73
2022-12-11T00:25:25.111Z,22.30
2022-12-11T00:27:52.729Z,24.95
2022-12-11T00:30:20.140Z,23.95
2022-12-11T00:32:48.087Z,22.63
2022-12-11T00:35:15.438Z,21.85
2022-12-11T00:37:43.074Z,22.42
2022-12-11T00:40:10.837Z,21.42
2022-12-11T00:42:38.802Z,23.70
2022-12-11T00:45:06.568Z,23.05
2022-12-11T00:47:34.175Z,23.60
2022-12-11T00:50:01.485Z,22.42
2022-12-11T00:52:29.179Z,21.73
2022-12-11T00:54:56.609Z,22.20
2022-12-11T00:57:24.235Z,23.10
2022-12-11T00:59:51.559Z,23.58
2022-12-11T01:02:19.166Z,24.25
2022-12-11T01:04:46.523Z,24.35
2022-12-11T01:07:14.101Z,21.77
2022-12-11T01:09:41.494Z,22.25
2022-12-11T01:15:13.139Z,22.60
2022-12-11T01:20:44.682Z,21.88
2022-12-11T01:23:13.119Z,21.98
2022-12-11T01:25:40.656Z,24.30
2022-12-11T01:28:08.600Z,24.60
2022-12-11T01:30:36.464Z,23.95
2022-12-11T01:33:04.458Z,22.52
2022-12-11T01:35:50.455Z,22.75
2022-12-11T01:38:36.854Z,22.55
2022-12-11T01:41:22.707Z,23.42
2022-12-11T01:44:28.775Z,22.83
2022-12-11T01:47:12.645Z,23.58
2022-12-11T01:49:41.656Z,24.42
2022-12-11T01:52:11.967Z,22.08
2022-12-11T01:54:39.586Z,22.88
2022-12-11T01:57:13.903Z,21.05
2022-12-11T01:59:44.717Z,21.05
2022-12-11T02:02:15.364Z,21.02
2022-12-11T02:04:43.730Z,20.85
2022-12-11T02:07:11.253Z,22.10
2022-12-11T02:09:40.856Z,23.33
2022-12-11T02:12:10.959Z,22.80
2022-12-11T02:14:47.549Z,22.02
2022-12-11T02:17:34.561Z,21.17
2022-12-11T02:23:20.170Z,21.25
2022-12-11T02:29:02.126Z,21.30
2022-12-11T02:31:36.463Z,21.40
2022-12-11T02:37:37.446Z,20.63
2022-12-11T02:40:07.502Z,20.85
2022-12-11T02:42:35.552Z,20.63
2022-12-11T02:45:04.392Z,22.80
2022-12-11T02:47:32.213Z,22.95
2022-12-11T02:50:01.245Z,20.38
2022-12-11T02:52:30.112Z,20.90
2022-12-11T02:54:59.151Z,22.88
2022-12-11T02:57:42.420Z,22.02
2022-12-11T03:00:10.532Z,24.45
2022-12-11T03:02:38.728Z,18.85
2022-12-11T03:05:06.803Z,20.13
2022-12-11T03:07:36.153Z,21.25
2022-12-11T03:10:05.042Z,19.27
2022-12-11T03:12:34.332Z,20.33
2022-12-11T03:15:02.988Z,20.33
2022-12-11T03:17:34.066Z,20.02
2022-12-11T03:20:01.775Z,20.98
2022-12-11T03:22:32.867Z,19.17
2022-12-11T03:25:00.635Z,20.20
2022-12-11T03:27:34.720Z,19.50
2022-12-11T03:30:05.799Z,19.40
2022-12-11T03:32:50.780Z,19.35
2022-12-11T03:35:18.595Z,19.70
2022-12-11T03:37:47.769Z,20.92
2022-12-11T03:40:17.467Z,20.60
2022-12-11T03:42:46.957Z,17.65
2022-12-11T03:45:15.229Z,17.67
2022-12-11T03:47:44.255Z,18.83
2022-12-11T03:50:13.653Z,19.60
2022-12-11T03:52:45.733Z,18.58
2022-12-11T03:55:14.836Z,19.80
2022-12-11T03:57:42.357Z,18.13
2022-12-11T04:00:12.213Z,20.65
2022-12-11T04:02:40.266Z,19.65
2022-12-11T04:05:09.087Z,20.05
2022-12-11T04:07:36.773Z,18.83
2022-12-11T04:10:05.695Z,18.75
2022-12-11T04:12:33.344Z,18.77
2022-12-11T04:15:00.989Z,18.52
2022-12-11T04:17:32.577Z,19.98
2022-12-11T04:20:00.227Z,19.90
2022-12-11T04:22:27.583Z,19.35
2022-12-11T04:24:55.281Z,19.20
2022-12-11T04:27:23.406Z,20.70
2022-12-11T04:29:51.021Z,19.52
2022-12-11T04:32:18.417Z,19.65
2022-12-11T04:34:46.091Z,19.35
2022-12-11T04:37:13.479Z,20.05
2022-12-11T04:39:41.090Z,21.63
2022-12-11T04:42:08.459Z,21.55
2022-12-11T04:44:36.052Z,21.15
2022-12-11T04:47:03.440Z,19.55
2022-12-11T04:49:31.063Z,20.00
2022-12-11T04:51:58.432Z,19.17
2022-12-11T04:54:26.044Z,20.98
2022-12-11T04:56:53.361Z,18.75
2022-12-11T04:59:21.062Z,20.00
2022-12-11T05:01:48.499Z,19.70
2022-12-11T05:04:16.187Z,20.35
2022-12-11T05:06:43.542Z,19.27
2022-12-11T05:09:11.922Z,19.13
2022-12-11T05:11:39.634Z,17.98
2022-12-11T05:14:07.275Z,19.25
2022-12-11T05:16:34.626Z,20.17
2022-12-11T05:19:02.236Z,18.17
2022-12-11T05:21:34.868Z,18.20
2022-12-11T05:24:03.217Z,18.23
2022-12-11T05:26:30.602Z,18.10
2022-12-11T05:28:58.205Z,17.65
2022-12-11T05:31:26.421Z,18.95
2022-12-11T05:33:54.265Z,17.92
2022-12-11T05:36:25.560Z,17.08
2022-12-11T05:38:53.491Z,17.40
2022-12-11T05:41:23.717Z,17.65
2022-12-11T05:43:51.574Z,19.17
2022-12-11T05:46:20.293Z,17.08
2022-12-11T05:48:48.848Z,15.77
2022-12-11T05:51:16.465Z,17.20
2022-12-11T05:53:44.781Z,14.85
2022-12-11T05:56:13.325Z,15.52
2022-12-11T05:58:41.626Z,17.48
2022-12-11T06:01:10.695Z,15.52
2022-12-11T06:03:38.610Z,14.45
2022-12-11T06:06:06.582Z,15.25
2022-12-11T06:08:34.574Z,14.50
2022-12-11T06:11:02.312Z,16.90
2022-12-11T06:13:30.225Z,16.00
2022-12-11T06:16:01.652Z,15.07
2022-12-11T06:18:29.334Z,17.98
2022-12-11T06:20:56.677Z,15.70
2022-12-11T06:23:24.341Z,15.93
2022-12-11T06:25:51.792Z,14.65
2022-12-11T06:28:19.432Z,14.52
2022-12-11T06:30:46.729Z,15.23
2022-12-11T06:33:14.315Z,15.15
2022-12-11T06:35:42.493Z,14.23
2022-12-11T06:38:10.282Z,13.95
2022-12-11T06:40:37.745Z,13.85
2022-12-11T06:43:05.379Z,13.35
2022-12-11T06:45:32.872Z,15.18
2022-12-11T06:48:00.616Z,14.15
2022-12-11T06:50:27.975Z,14.95
2022-12-11T06:52:56.212Z,13.18
2022-12-11T06:55:23.594Z,14.23
2022-12-11T06:57:51.208Z,14.18
2022-12-11T07:00:18.521Z,13.70
2022-12-11T07:06:28.551Z,14.48
2022-12-11T07:08:56.454Z,14.98
2022-12-11T07:11:24.110Z,14.80
2022-12-11T07:13:51.765Z,15.55
2022-12-11T07:16:19.227Z,15.23
2022-12-11T07:18:47.988Z,14.10
2022-12-11T07:21:15.770Z,14.40
2022-12-11T07:23:43.412Z,14.30
2022-12-11T07:26:14.646Z,13.60
2022-12-11T07:28:42.491Z,14.67
2022-12-11T07:31:11.189Z,13.85
2022-12-11T07:33:38.874Z,13.27
2022-12-11T07:36:07.216Z,13.55
2022-12-11T07:38:35.220Z,13.07
2022-12-11T07:41:06.398Z,13.48
2022-12-11T07:43:34.315Z,15.40
2022-12-11T07:46:02.675Z,14.40
2022-12-11T07:48:30.488Z,15.10
2022-12-11T07:51:07.573Z,14.23
2022-12-11T07:53:35.230Z,13.75
2022-12-11T07:56:02.627Z,14.98
2022-12-11T07:58:30.291Z,14.45
2022-12-11T08:00:57.734Z,12.25
2022-12-11T08:03:25.429Z,14.20
2022-12-11T08:05:52.807Z,12.95
2022-12-11T08:08:20.580Z,13.43
2022-12-11T08:10:48.059Z,13.60
2022-12-11T08:13:15.798Z,12.50
2022-12-11T08:15:43.101Z,12.45
2022-12-11T08:18:10.716Z,11.05
2022-12-11T08:20:38.807Z,13.13
2022-12-11T08:23:06.421Z,11.88
2022-12-11T08:25:33.781Z,11.35
2022-12-11T08:28:01.341Z,11.45
2022-12-11T08:30:28.702Z,12.32
2022-12-11T08:32:56.471Z,11.40
2022-12-11T08:35:24.009Z,10.68
2022-12-11T08:37:51.845Z,10.00
2022-12-11T08:40:19.293Z,10.65
2022-12-11T08:42:47.077Z,11.02
2022-12-11T08:45:14.472Z,11.45
2022-12-11T08:47:42.087Z,11.73
2022-12-11T08:50:09.673Z,11.63
2022-12-11T08:52:37.306Z,12.05
2022-12-11T08:55:04.890Z,10.77
2022-12-11T08:57:32.507Z,12.27
2022-12-11T08:59:59.824Z,12.38
2022-12-11T09:02:27.574Z,11.30
2022-12-11T09:04:54.962Z,11.90
2022-12-11T09:07:22.635Z,11.38
2022-12-11T09:09:49.997Z,11.82
2022-12-11T09:12:17.732Z,12.98
2022-12-11T09:14:45.046Z,11.60
2022-12-11T09:17:12.616Z,12.57
2022-12-11T09:19:39.992Z,12.13
2022-12-11T09:22:07.879Z,11.98
2022-12-11T09:24:35.519Z,12.43
2022-12-11T09:27:03.855Z,12.27
2022-12-11T09:29:31.513Z,11.75
2022-12-11T09:35:13.062Z,11.38
2022-12-11T09:37:41.472Z,11.07
2022-12-11T09:40:10.871Z,11.05
2022-12-11T09:42:47.118Z,10.68
2022-12-11T09:45:16.317Z,12.95
2022-12-11T09:47:45.638Z,9.15
2022-12-11T09:50:15.848Z,9.88
2022-12-11T09:52:43.518Z,9.93
2022-12-11T09:55:16.386Z,11.82
2022-12-11T09:58:01.915Z,11.13
2022-12-11T10:00:37.110Z,11.00
2022-12-11T10:03:04.682Z,10.32
2022-12-11T10:05:42.453Z,10.23
2022-12-11T10:08:22.050Z,10.75
2022-12-11T10:10:57.536Z,10.02
2022-12-11T10:13:43.097Z,9.60
2022-12-11T10:16:42.710Z,11.50
2022-12-11T10:19:16.353Z,10.98
2022-12-11T10:21:46.816Z,10.20
2022-12-11T10:24:40.734Z,9.82
2022-12-11T10:27:16.449Z,11.02
2022-12-11T10:29:44.252Z,10.43
2022-12-11T10:32:34.680Z,10.88
2022-12-11T10:35:05.425Z,10.90
2022-12-11T10:37:32.876Z,10.88
2022-12-11T10:40:00.552Z,10.45
2022-12-11T10:42:31.171Z,9.90
2022-12-11T10:47:27.710Z,9.93
2022-12-11T10:50:05.898Z,9.13
2022-12-11T10:52:38.102Z,9.18
2022-12-11T10:58:20.742Z,8.65
2022-12-11T11:00:58.541Z,8.90
2022-12-11T11:03:27.058Z,8.38
2022-12-11T11:06:14.753Z,7.57
2022-12-11T11:08:43.488Z,8.57
2022-12-11T11:11:41.143Z,9.30
2022-12-11T11:15:22.558Z,10.00
2022-12-11T11:18:17.207Z,10.05
2022-12-11T11:20:47.812Z,9.48
2022-12-11T11:23:16.128Z,9.38
2022-12-11T11:26:12.950Z,8.23
2022-12-11T11:28:41.829Z,9.50
2022-12-11T11:34:51.498Z,9.85
2022-12-11T11:37:32.019Z,9.73
2022-12-11T11:40:03.174Z,8.85
2022-12-11T11:42:41.105Z,8.17
2022-12-11T11:45:19.978Z,8.82
2022-12-11T11:47:56.384Z,9.02
2022-12-11T11:50:27.695Z,9.05
2022-12-11T11:56:28.849Z,8.73
2022-12-11T11:58:56.511Z,9.88
2022-12-11T12:01:24.506Z,9.10
2022-12-11T12:03:52.470Z,10.35
2022-12-11T12:06:19.836Z,9.95
2022-12-11T12:08:56.391Z,10.05
2022-12-11T12:14:55.877Z,10.68
2022-12-11T12:17:31.431Z,10.13
2022-12-11T12:20:07.126Z,9.82
2022-12-11T12:22:40.597Z,10.98
2022-12-11T12:25:16.437Z,10.30
2022-12-11T12:27:52.187Z,9.57
2022-12-11T12:30:23.168Z,9.75
2022-12-11T12:32:57.474Z,8.95
2022-12-11T12:35:35.556Z,9.20
2022-12-11T12:38:09.081Z,7.45
2022-12-11T12:40:40.422Z,8.70
2022-12-11T12:43:16.881Z,9.27
2022-12-11T12:45:59.476Z,8.93
2022-12-11T12:48:27.312Z,9.55
2022-12-11T12:50:55.104Z,9.30
2022-12-11T12:53:28.503Z,9.88
2022-12-11T12:55:56.284Z,11.20
2022-12-11T12:58:26.942Z,11.57
2022-12-11T13:00:54.607Z,9.30
2022-12-11T13:03:23.566Z,8.63
2022-12-11T13:05:59.141Z,10.32
2022-12-11T13:08:31.009Z,9.40
2022-12-11T13:11:09.117Z,9.68
2022-12-11T13:13:54.957Z,10.73
2022-12-11T13:16:38.882Z,10.00
2022-12-11T13:19:24.674Z,10.57
2022-12-11T13:22:04.057Z,10.00
2022-12-11T13:24:32.718Z,9.52
2022-12-11T13:27:22.097Z,9.55
2022-12-11T13:29:51.703Z,9.70
2022-12-11T13:32:19.372Z,9.93
2022-12-11T13:34:58.125Z,8.50
2022-12-11T13:37:28.621Z,7.70
2022-12-11T13:39:59.265Z,9.30
2022-12-11T13:42:29.494Z,8.27
2022-12-11T13:48:25.780Z,8.27
2022-12-11T13:50:54.285Z,8.70
2022-12-11T13:53:21.938Z,7.38
2022-12-11T13:56:15.981Z,7.40
2022-12-11T13:58:45.696Z,7.32
2022-12-11T14:01:35.604Z,7.03
2022-12-11T14:04:06.584Z,7.22
2022-12-11T14:06:35.825Z,7.45
2022-12-11T14:12:25.524Z,6.93
2022-12-11T14:14:54.685Z,8.43
2022-12-11T14:17:26.706Z,7.95
2022-12-11T14:22:25.602Z,7.53
2022-12-11T14:25:01.138Z,7.30
2022-12-11T14:27:28.965Z,6.85
2022-12-11T14:30:25.044Z,6.95
2022-12-11T14:32:55.958Z,7.03
2022-12-11T14:35:23.570Z,7.32
2022-12-11T14:37:51.663Z,6.05
2022-12-11T14:40:20.511Z,7.15
2022-12-11T14:42:54.406Z,6.75
2022-12-11T14:45:33.361Z,6.47
2022-12-11T14:48:01.976Z,7.25
2022-12-11T14:50:52.607Z,6.45
2022-12-11T14:53:31.593Z,6.03
2022-12-11T14:56:02.796Z,6.70
2022-12-11T14:58:30.825Z,6.93
2022-12-11T15:01:05.703Z,6.82
2022-12-11T15:03:36.906Z,6.72
2022-12-11T15:06:24.846Z,7.70
2022-12-11T15:08:52.318Z,6.72
2022-12-11T15:18:27.084Z,7.28
2022-12-11T15:20:56.207Z,9.52
2022-12-11T15:23:23.740Z,8.23
2022-12-11T15:25:52.614Z,8.77
2022-12-11T15:28:27.652Z,8.50
2022-12-11T15:30:56.851Z,9.52
2022-12-11T15:33:25.229Z,9.02
2022-12-11T15:35:58.374Z,8.73
2022-12-11T15:38:29.886Z,9.17
2022-12-11T15:40:57.962Z,9.07
2022-12-11T15:43:25.424Z,8.98
2022-12-11T15:45:53.135Z,7.90
2022-12-11T15:48:20.525Z,8.93
2022-12-11T15:50:48.233Z,8.38
2022-12-11T15:53:15.546Z,8.55
2022-12-11T15:55:43.194Z,7.78
2022-12-11T15:58:14.710Z,8.70
2022-12-11T16:00:42.362Z,8.52
2022-12-11T16:03:11.329Z,7.82
2022-12-11T16:05:39.279Z,7.57
2022-12-11T16:08:06.735Z,6.68
2022-12-11T16:10:34.385Z,8.02
2022-12-11T16:13:01.908Z,7.22
2022-12-11T16:15:29.883Z,7.88
2022-12-11T16:18:04.781Z,7.47
2022-12-11T16:20:32.860Z,6.93
2022-12-11T16:23:00.307Z,8.35
2022-12-11T16:25:28.038Z,8.25
2022-12-11T16:27:56.332Z,7.82
2022-12-11T16:30:24.347Z,7.18
2022-12-11T16:32:52.204Z,7.78
2022-12-11T16:35:20.292Z,8.50
2022-12-11T16:37:53.982Z,8.15
2022-12-11T16:40:22.556Z,9.13
2022-12-11T16:42:50.099Z,7.60
2022-12-11T16:45:19.053Z,6.80
2022-12-11T16:47:46.419Z,7.03
2022-12-11T16:50:14.415Z,7.53
2022-12-11T16:52:42.045Z,7.65
2022-12-11T16:55:10.826Z,6.63
2022-12-11T16:57:38.409Z,6.47
2022-12-11T17:00:07.208Z,7.22
2022-12-11T17:02:34.962Z,7.85
2022-12-11T17:05:02.790Z,6.75
2022-12-11T17:07:31.580Z,7.03
2022-12-11T17:16:35.436Z,7.82
2022-12-11T17:19:02.818Z,6.40
2022-12-11T17:21:30.970Z,7.57
2022-12-11T17:23:58.785Z,8.63
2022-12-11T17:26:26.456Z,7.70
2022-12-11T17:28:53.895Z,7.38
2022-12-11T17:31:21.667Z,7.57
2022-12-11T17:33:52.300Z,7.10
2022-12-11T17:36:21.899Z,7.70
2022-12-11T17:42:11.331Z,8.52
2022-12-11T17:44:38.962Z,6.75
2022-12-11T17:47:11.113Z,8.75
2022-12-11T17:49:39.810Z,8.27
2022-12-11T17:52:07.473Z,9.43
2022-12-11T17:54:35.349Z,8.75
2022-12-11T17:57:02.882Z,8.48
2022-12-11T17:59:30.574Z,8.65
2022-12-11T18:01:58.097Z,8.07
2022-12-11T18:04:28.481Z,8.63
2022-12-11T18:06:56.021Z,8.82
2022-12-11T18:09:26.479Z,9.07
2022-12-11T18:11:53.917Z,9.63
2022-12-11T18:14:21.668Z,8.45
2022-12-11T18:16:49.088Z,10.93
2022-12-11T18:19:18.361Z,8.85
2022-12-11T18:21:45.893Z,9.90
2022-12-11T18:24:13.621Z,10.48
2022-12-11T18:26:41.180Z,10.40
2022-12-11T18:29:08.790Z,8.57
2022-12-11T18:31:41.972Z,10.15
2022-12-11T18:34:10.347Z,9.75
2022-12-11T18:39:59.867Z,10.90
2022-12-11T18:42:34.887Z,9.30
2022-12-11T18:45:02.461Z,10.07
2022-12-11T18:47:30.157Z,10.77
2022-12-11T18:50:01.189Z,10.48
2022-12-11T18:52:31.771Z,10.73
2022-12-11T18:58:14.038Z,9.65
2022-12-11T19:00:42.262Z,10.13
2022-12-11T19:03:10.477Z,10.63
2022-12-11T19:05:37.872Z,8.93
2022-12-11T19:08:05.680Z,9.23
2022-12-11T19:10:33.054Z,10.13
2022-12-11T19:13:00.715Z,10.18
2022-12-11T19:15:28.110Z,10.05
2022-12-11T19:17:55.832Z,10.02
2022-12-11T19:20:48.084Z,11.00
2022-12-11T19:26:56.639Z,10.93
2022-12-11T19:29:26.097Z,10.73
2022-12-11T19:31:53.551Z,11.02
2022-12-11T19:34:21.942Z,10.80
2022-12-11T19:36:49.427Z,10.65
2022-12-11T19:39:17.446Z,11.13
2022-12-11T19:41:44.966Z,9.55
2022-12-11T19:44:12.635Z,9.73
2022-12-11T19:46:40.101Z,10.68
2022-12-11T19:49:07.788Z,10.05
2022-12-11T19:51:36.409Z,10.65
2022-12-11T19:54:04.612Z,9.98
2022-12-11T19:56:32.849Z,10.00
2022-12-11T19:59:04.614Z,12.00
2022-12-11T20:01:33.377Z,9.80
2022-12-11T20:04:02.469Z,10.77
2022-12-11T20:06:31.415Z,10.63
2022-12-11T20:08:59.533Z,10.48
2022-12-11T20:11:27.563Z,10.00
2022-12-11T20:13:55.963Z,10.35
2022-12-11T20:16:39.509Z,10.10
2022-12-11T20:19:11.326Z,9.48
2022-12-11T20:21:38.687Z,11.40
2022-12-11T20:24:06.559Z,10.90
2022-12-11T20:26:33.906Z,10.60
2022-12-11T20:29:01.568Z,10.75
2022-12-11T20:31:28.955Z,9.73
2022-12-11T20:33:57.031Z,10.73
2022-12-11T20:36:24.902Z,11.55
2022-12-11T20:38:52.830Z,10.68
2022-12-11T20:41:21.478Z,11.35
2022-12-11T20:43:49.387Z,11.35
2022-12-11T20:49:38.442Z,10.32
2022-12-11T20:52:05.945Z,11.85
2022-12-11T20:54:33.567Z,10.98
2022-12-11T20:57:01.005Z,10.57
2022-12-11T20:59:28.763Z,12.63
2022-12-11T21:05:10.332Z,11.23
2022-12-11T21:07:37.889Z,12.23
2022-12-11T21:10:12.977Z,11.18
2022-12-11T21:12:40.435Z,11.70
2022-12-11T21:15:08.342Z,11.40
2022-12-11T21:17:47.913Z,11.48
2022-12-11T21:20:15.614Z,11.45
2022-12-11T21:22:43.073Z,12.50
2022-12-11T21:25:11.128Z,11.60
2022-12-11T21:27:38.844Z,12.70
2022-12-11T21:30:06.837Z,11.65
2022-12-11T21:32:34.225Z,11.38
2022-12-11T21:35:01.899Z,10.77
2022-12-11T21:37:29.291Z,11.20
2022-12-11T21:39:56.915Z,11.70
2022-12-11T21:42:24.692Z,11.50
2022-12-11T21:47:39.704Z,10.32
2022-12-11T21:50:08.568Z,11.38
2022-12-11T21:52:37.943Z,11.23
2022-12-11T21:55:05.932Z,11.38
2022-12-11T21:57:33.308Z,12.07
2022-12-11T22:00:00.940Z,11.88
2022-12-11T22:02:28.381Z,11.90
2022-12-11T22:08:14.470Z,11.95
2022-12-11T22:10:42.090Z,10.30
2022-12-11T22:13:09.527Z,10.88
2022-12-11T22:15:37.234Z,11.23
2022-12-11T22:18:04.599Z,11.18
2022-12-11T22:20:32.476Z,11.00
2022-12-11T22:22:59.987Z,11.35
2022-12-11T22:25:27.629Z,11.25
2022-12-11T22:27:55.044Z,11.68
2022-12-11T22:30:22.733Z,12.27
2022-12-11T22:32:50.113Z,11.45
2022-12-11T22:35:18.058Z,11.18
2022-12-11T22:37:45.460Z,11.85
2022-12-11T22:40:13.131Z,11.20
2022-12-11T22:42:40.546Z,11.15
2022-12-11T22:45:08.425Z,12.00
2022-12-11T22:47:35.786Z,11.45
2022-12-11T22:50:03.945Z,11.60
2022-12-11T22:52:31.592Z,10.82
2022-12-11T22:54:59.303Z,12.15
2022-12-11T22:57:26.693Z,11.90
2022-12-11T22:59:54.411Z,11.50
2022-12-11T23:02:21.910Z,11.45
2022-12-11T23:04:49.827Z,10.55
2022-12-11T23:07:17.299Z,11.80
2022-12-11T23:09:45.099Z,11.73
2022-12-11T23:15:29.681Z,12.13
2022-12-11T23:17:57.041Z,11.85
2022-12-11T23:20:24.655Z,12.80
2022-12-11T23:22:52.009Z,12.23
2022-12-11T23:25:19.762Z,11.77
2022-12-11T23:27:47.169Z,12.02
2022-12-11T23:30:14.826Z,12.85
2022-12-11T23:32:42.297Z,12.18
2022-12-11T23:35:10.415Z,13.40
2022-12-11T23:37:38.097Z,13.07
2022-12-11T23:40:06.070Z,12.75
2022-12-11T23:42:33.514Z,11.75
2022-12-11T23:45:01.195Z,12.70
2022-12-11T23:47:28.673Z,12.60
2022-12-11T23:49:56.302Z,13.18
2022-12-11T23:52:26.556Z,15.07
2022-12-11T23:54:57.017Z,12.82
2022-12-11T23:57:24.438Z,12.88
2022-12-11T23:59:52.171Z,13.60
